sensor_id;sensor_type;location;lat;lon;timestamp;P1;durP1;ratioP1;P2;durP2;ratioP2
21101;SDS011;10709;49.006;12.100;2023-07-13T00:01:49;4.50;;;3.95;;
21101;SDS011;10709;49.006;12.100;2023-07-13T00:04:17;4.18;;;3.65;;
21101;SDS011;10709;49.006;12.100;2023-07-13T00:06:45;4.32;;;3.72;;
21101;SDS011;10709;49.006;12.100;2023-07-13T00:09:13;5.25;;;4.07;;
21101;SDS011;10709;49.006;12.100;2023-07-13T00:11:41;4.18;;;3.67;;
21101;SDS011;10709;49.006;12.100;2023-07-13T00:14:07;4.22;;;3.88;;
21101;SDS011;10709;49.006;12.100;2023-07-13T00:16:35;4.55;;;3.60;;
21101;SDS011;10709;49.006;12.100;2023-07-13T00:19:04;7.28;;;3.83;;
21101;SDS011;10709;49.006;12.100;2023-07-13T00:21:31;5.28;;;4.07;;
21101;SDS011;10709;49.006;12.100;2023-07-13T00:23:59;4.47;;;3.72;;
21101;SDS011;10709;49.006;12.100;2023-07-13T00:26:27;4.90;;;3.70;;
21101;SDS011;10709;49.006;12.100;2023-07-13T00:28:53;5.32;;;3.70;;
21101;SDS011;10709;49.006;12.100;2023-07-13T00:31:20;4.35;;;3.60;;
21101;SDS011;10709;49.006;12.100;2023-07-13T00:33:49;6.05;;;3.80;;
21101;SDS011;10709;49.006;12.100;2023-07-13T00:36:15;5.93;;;3.72;;
21101;SDS011;10709;49.006;12.100;2023-07-13T00:38:42;5.13;;;3.88;;
21101;SDS011;10709;49.006;12.100;2023-07-13T00:41:10;6.28;;;3.72;;
21101;SDS011;10709;49.006;12.100;2023-07-13T00:43:37;3.92;;;3.50;;
21101;SDS011;10709;49.006;12.100;2023-07-13T00:46:23;6.15;;;3.85;;
21101;SDS011;10709;49.006;12.100;2023-07-13T00:48:53;4.50;;;3.63;;
21101;SDS011;10709;49.006;12.100;2023-07-13T00:51:28;5.32;;;3.85;;
21101;SDS011;10709;49.006;12.100;2023-07-13T00:53:59;5.13;;;3.28;;
21101;SDS011;10709;49.006;12.100;2023-07-13T00:56:29;4.65;;;3.40;;
21101;SDS011;10709;49.006;12.100;2023-07-13T00:58:57;4.65;;;3.80;;
21101;SDS011;10709;49.006;12.100;2023-07-13T01:01:25;5.00;;;3.30;;
21101;SDS011;10709;49.006;12.100;2023-07-13T01:03:52;6.10;;;3.60;;
21101;SDS011;10709;49.006;12.100;2023-07-13T01:06:20;4.55;;;3.55;;
21101;SDS011;10709;49.006;12.100;2023-07-13T01:08:46;4.88;;;3.70;;
21101;SDS011;10709;49.006;12.100;2023-07-13T01:11:13;6.32;;;3.92;;
21101;SDS011;10709;49.006;12.100;2023-07-13T01:13:46;4.40;;;3.90;;
21101;SDS011;10709;49.006;12.100;2023-07-13T01:16:19;4.15;;;3.58;;
21101;SDS011;10709;49.006;12.100;2023-07-13T01:18:52;4.55;;;3.50;;
21101;SDS011;10709;49.006;12.100;2023-07-13T01:21:19;4.72;;;3.92;;
21101;SDS011;10709;49.006;12.100;2023-07-13T01:23:45;5.80;;;4.18;;
21101;SDS011;10709;49.006;12.100;2023-07-13T01:26:12;6.18;;;4.10;;
21101;SDS011;10709;49.006;12.100;2023-07-13T01:28:39;4.07;;;3.67;;
21101;SDS011;10709;49.006;12.100;2023-07-13T01:31:06;4.88;;;4.28;;
21101;SDS011;10709;49.006;12.100;2023-07-13T01:33:36;5.28;;;4.60;;
21101;SDS011;10709;49.006;12.100;2023-07-13T01:36:04;5.40;;;4.65;;
21101;SDS011;10709;49.006;12.100;2023-07-13T01:38:32;5.93;;;4.95;;
21101;SDS011;10709;49.006;12.100;2023-07-13T01:40:59;7.45;;;5.03;;
21101;SDS011;10709;49.006;12.100;2023-07-13T01:43:26;6.95;;;5.82;;
21101;SDS011;10709;49.006;12.100;2023-07-13T01:45:54;6.25;;;5.10;;
21101;SDS011;10709;49.006;12.100;2023-07-13T01:48:34;5.68;;;4.75;;
21101;SDS011;10709;49.006;12.100;2023-07-13T01:51:01;5.85;;;4.50;;
21101;SDS011;10709;49.006;12.100;2023-07-13T01:53:27;6.43;;;4.90;;
21101;SDS011;10709;49.006;12.100;2023-07-13T01:55:54;5.93;;;5.05;;
21101;SDS011;10709;49.006;12.100;2023-07-13T01:58:20;5.13;;;4.63;;
21101;SDS011;10709;49.006;12.100;2023-07-13T02:00:48;5.40;;;4.90;;
21101;SDS011;10709;49.006;12.100;2023-07-13T02:03:16;5.88;;;5.00;;
21101;SDS011;10709;49.006;12.100;2023-07-13T02:05:44;7.82;;;5.25;;
21101;SDS011;10709;49.006;12.100;2023-07-13T02:08:11;7.60;;;5.70;;
21101;SDS011;10709;49.006;12.100;2023-07-13T02:10:37;6.05;;;4.60;;
21101;SDS011;10709;49.006;12.100;2023-07-13T02:13:05;5.20;;;4.70;;
21101;SDS011;10709;49.006;12.100;2023-07-13T02:15:32;5.78;;;4.45;;
21101;SDS011;10709;49.006;12.100;2023-07-13T02:17:58;7.30;;;5.10;;
21101;SDS011;10709;49.006;12.100;2023-07-13T02:20:25;5.75;;;4.55;;
21101;SDS011;10709;49.006;12.100;2023-07-13T02:22:52;10.00;;;5.38;;
21101;SDS011;10709;49.006;12.100;2023-07-13T02:25:19;4.82;;;4.43;;
21101;SDS011;10709;49.006;12.100;2023-07-13T02:27:45;5.28;;;4.78;;
21101;SDS011;10709;49.006;12.100;2023-07-13T02:30:14;5.05;;;4.28;;
21101;SDS011;10709;49.006;12.100;2023-07-13T02:32:41;6.78;;;4.43;;
21101;SDS011;10709;49.006;12.100;2023-07-13T02:35:08;5.28;;;4.38;;
21101;SDS011;10709;49.006;12.100;2023-07-13T02:37:34;7.38;;;4.72;;
21101;SDS011;10709;49.006;12.100;2023-07-13T02:40:01;4.57;;;3.97;;
21101;SDS011;10709;49.006;12.100;2023-07-13T02:42:34;5.90;;;4.20;;
21101;SDS011;10709;49.006;12.100;2023-07-13T02:45:05;7.13;;;4.40;;
21101;SDS011;10709;49.006;12.100;2023-07-13T02:47:33;5.35;;;4.10;;
21101;SDS011;10709;49.006;12.100;2023-07-13T02:50:00;5.25;;;3.95;;
21101;SDS011;10709;49.006;12.100;2023-07-13T02:52:27;4.85;;;4.32;;
21101;SDS011;10709;49.006;12.100;2023-07-13T02:54:53;4.90;;;4.07;;
21101;SDS011;10709;49.006;12.100;2023-07-13T02:57:20;5.07;;;4.10;;
21101;SDS011;10709;49.006;12.100;2023-07-13T02:59:47;5.25;;;4.47;;
21101;SDS011;10709;49.006;12.100;2023-07-13T03:02:14;6.30;;;4.10;;
21101;SDS011;10709;49.006;12.100;2023-07-13T03:04:40;4.85;;;4.00;;
21101;SDS011;10709;49.006;12.100;2023-07-13T03:07:07;5.15;;;4.50;;
21101;SDS011;10709;49.006;12.100;2023-07-13T03:09:34;6.57;;;4.30;;
21101;SDS011;10709;49.006;12.100;2023-07-13T03:12:01;5.53;;;4.45;;
21101;SDS011;10709;49.006;12.100;2023-07-13T03:14:29;5.07;;;4.03;;
21101;SDS011;10709;49.006;12.100;2023-07-13T03:16:56;6.93;;;4.65;;
21101;SDS011;10709;49.006;12.100;2023-07-13T03:19:23;4.63;;;4.10;;
21101;SDS011;10709;49.006;12.100;2023-07-13T03:21:49;8.18;;;4.43;;
21101;SDS011;10709;49.006;12.100;2023-07-13T03:24:16;6.65;;;3.95;;
21101;SDS011;10709;49.006;12.100;2023-07-13T03:26:42;4.35;;;3.95;;
21101;SDS011;10709;49.006;12.100;2023-07-13T03:29:09;4.53;;;4.00;;
21101;SDS011;10709;49.006;12.100;2023-07-13T03:31:37;4.97;;;3.90;;
21101;SDS011;10709;49.006;12.100;2023-07-13T03:34:04;4.47;;;3.83;;
21101;SDS011;10709;49.006;12.100;2023-07-13T03:36:31;7.20;;;4.55;;
21101;SDS011;10709;49.006;12.100;2023-07-13T03:38:59;4.95;;;4.07;;
21101;SDS011;10709;49.006;12.100;2023-07-13T03:41:29;5.55;;;4.10;;
21101;SDS011;10709;49.006;12.100;2023-07-13T03:43:57;4.68;;;4.18;;
21101;SDS011;10709;49.006;12.100;2023-07-13T03:46:24;5.57;;;4.10;;
21101;SDS011;10709;49.006;12.100;2023-07-13T03:48:50;9.50;;;4.70;;
21101;SDS011;10709;49.006;12.100;2023-07-13T03:51:17;4.88;;;4.25;;
21101;SDS011;10709;49.006;12.100;2023-07-13T03:53:45;7.38;;;4.38;;
21101;SDS011;10709;49.006;12.100;2023-07-13T03:56:13;6.72;;;4.10;;
21101;SDS011;10709;49.006;12.100;2023-07-13T03:58:43;6.43;;;4.05;;
21101;SDS011;10709;49.006;12.100;2023-07-13T04:01:15;7.53;;;3.88;;
21101;SDS011;10709;49.006;12.100;2023-07-13T04:03:44;5.70;;;4.35;;
21101;SDS011;10709;49.006;12.100;2023-07-13T04:06:19;7.70;;;4.63;;
21101;SDS011;10709;49.006;12.100;2023-07-13T04:08:49;5.60;;;4.32;;
21101;SDS011;10709;49.006;12.100;2023-07-13T04:11:18;9.75;;;4.35;;
21101;SDS011;10709;49.006;12.100;2023-07-13T04:13:46;4.93;;;4.28;;
21101;SDS011;10709;49.006;12.100;2023-07-13T04:16:14;7.93;;;4.55;;
21101;SDS011;10709;49.006;12.100;2023-07-13T04:18:41;7.40;;;4.32;;
21101;SDS011;10709;49.006;12.100;2023-07-13T04:21:08;6.45;;;4.68;;
21101;SDS011;10709;49.006;12.100;2023-07-13T04:23:37;10.15;;;5.00;;
21101;SDS011;10709;49.006;12.100;2023-07-13T04:26:05;7.82;;;4.65;;
21101;SDS011;10709;49.006;12.100;2023-07-13T04:28:32;13.00;;;5.75;;
21101;SDS011;10709;49.006;12.100;2023-07-13T04:30:59;6.63;;;4.82;;
21101;SDS011;10709;49.006;12.100;2023-07-13T04:33:26;10.93;;;5.72;;
21101;SDS011;10709;49.006;12.100;2023-07-13T04:35:54;10.45;;;5.55;;
21101;SDS011;10709;49.006;12.100;2023-07-13T04:38:24;7.07;;;4.72;;
21101;SDS011;10709;49.006;12.100;2023-07-13T04:40:55;8.02;;;4.90;;
21101;SDS011;10709;49.006;12.100;2023-07-13T04:43:23;8.80;;;5.20;;
21101;SDS011;10709;49.006;12.100;2023-07-13T04:45:51;8.27;;;4.95;;
21101;SDS011;10709;49.006;12.100;2023-07-13T04:48:18;9.65;;;4.97;;
21101;SDS011;10709;49.006;12.100;2023-07-13T04:50:46;7.72;;;5.00;;
21101;SDS011;10709;49.006;12.100;2023-07-13T04:53:13;6.97;;;4.50;;
21101;SDS011;10709;49.006;12.100;2023-07-13T04:55:40;6.00;;;4.30;;
21101;SDS011;10709;49.006;12.100;2023-07-13T04:58:07;8.57;;;4.65;;
21101;SDS011;10709;49.006;12.100;2023-07-13T05:00:33;13.02;;;4.50;;
21101;SDS011;10709;49.006;12.100;2023-07-13T05:03:00;10.43;;;4.57;;
21101;SDS011;10709;49.006;12.100;2023-07-13T05:05:27;6.65;;;4.40;;
21101;SDS011;10709;49.006;12.100;2023-07-13T05:07:53;8.07;;;4.18;;
21101;SDS011;10709;49.006;12.100;2023-07-13T05:10:20;7.63;;;4.40;;
21101;SDS011;10709;49.006;12.100;2023-07-13T05:12:47;10.02;;;4.43;;
21101;SDS011;10709;49.006;12.100;2023-07-13T05:15:14;6.53;;;3.70;;
21101;SDS011;10709;49.006;12.100;2023-07-13T05:17:42;8.77;;;3.80;;
21101;SDS011;10709;49.006;12.100;2023-07-13T05:20:08;6.90;;;3.88;;
21101;SDS011;10709;49.006;12.100;2023-07-13T05:22:35;6.53;;;3.78;;
21101;SDS011;10709;49.006;12.100;2023-07-13T05:25:04;6.75;;;3.40;;
21101;SDS011;10709;49.006;12.100;2023-07-13T05:27:33;7.80;;;3.58;;
21101;SDS011;10709;49.006;12.100;2023-07-13T05:30:03;7.22;;;3.60;;
21101;SDS011;10709;49.006;12.100;2023-07-13T05:32:30;6.05;;;3.30;;
21101;SDS011;10709;49.006;12.100;2023-07-13T05:34:56;6.32;;;3.30;;
21101;SDS011;10709;49.006;12.100;2023-07-13T05:37:23;8.25;;;3.10;;
21101;SDS011;10709;49.006;12.100;2023-07-13T05:39:49;7.75;;;3.40;;
21101;SDS011;10709;49.006;12.100;2023-07-13T05:42:16;12.57;;;3.10;;
21101;SDS011;10709;49.006;12.100;2023-07-13T05:44:43;9.30;;;3.15;;
21101;SDS011;10709;49.006;12.100;2023-07-13T05:47:10;4.88;;;2.97;;
21101;SDS011;10709;49.006;12.100;2023-07-13T05:49:38;3.20;;;2.75;;
21101;SDS011;10709;49.006;12.100;2023-07-13T05:52:05;3.83;;;2.70;;
21101;SDS011;10709;49.006;12.100;2023-07-13T05:54:32;5.20;;;2.60;;
21101;SDS011;10709;49.006;12.100;2023-07-13T05:56:58;3.30;;;2.63;;
21101;SDS011;10709;49.006;12.100;2023-07-13T05:59:25;7.13;;;2.90;;
21101;SDS011;10709;49.006;12.100;2023-07-13T06:01:51;5.50;;;2.63;;
21101;SDS011;10709;49.006;12.100;2023-07-13T06:04:19;3.13;;;2.20;;
21101;SDS011;10709;49.006;12.100;2023-07-13T06:06:46;3.92;;;2.10;;
21101;SDS011;10709;49.006;12.100;2023-07-13T06:09:14;4.15;;;2.40;;
21101;SDS011;10709;49.006;12.100;2023-07-13T06:11:40;4.55;;;2.47;;
21101;SDS011;10709;49.006;12.100;2023-07-13T06:14:07;4.15;;;2.35;;
21101;SDS011;10709;49.006;12.100;2023-07-13T06:16:33;6.60;;;2.45;;
21101;SDS011;10709;49.006;12.100;2023-07-13T06:19:00;4.00;;;2.55;;
21101;SDS011;10709;49.006;12.100;2023-07-13T06:21:26;5.25;;;2.20;;
21101;SDS011;10709;49.006;12.100;2023-07-13T06:23:53;3.35;;;2.50;;
21101;SDS011;10709;49.006;12.100;2023-07-13T06:26:20;4.45;;;2.20;;
21101;SDS011;10709;49.006;12.100;2023-07-13T06:28:51;4.78;;;2.13;;
21101;SDS011;10709;49.006;12.100;2023-07-13T06:31:18;3.35;;;2.20;;
21101;SDS011;10709;49.006;12.100;2023-07-13T06:33:45;3.83;;;2.35;;
21101;SDS011;10709;49.006;12.100;2023-07-13T06:36:11;3.80;;;2.17;;
21101;SDS011;10709;49.006;12.100;2023-07-13T06:38:39;2.65;;;2.13;;
21101;SDS011;10709;49.006;12.100;2023-07-13T06:41:07;4.03;;;2.10;;
21101;SDS011;10709;49.006;12.100;2023-07-13T06:43:35;3.63;;;2.10;;
21101;SDS011;10709;49.006;12.100;2023-07-13T06:46:02;3.38;;;2.10;;
21101;SDS011;10709;49.006;12.100;2023-07-13T06:48:29;6.13;;;2.10;;
21101;SDS011;10709;49.006;12.100;2023-07-13T06:50:56;2.75;;;1.65;;
21101;SDS011;10709;49.006;12.100;2023-07-13T06:53:23;4.00;;;2.30;;
21101;SDS011;10709;49.006;12.100;2023-07-13T06:55:51;2.55;;;1.98;;
21101;SDS011;10709;49.006;12.100;2023-07-13T06:58:18;3.95;;;1.95;;
21101;SDS011;10709;49.006;12.100;2023-07-13T07:00:46;3.33;;;2.40;;
21101;SDS011;10709;49.006;12.100;2023-07-13T07:03:13;4.68;;;2.05;;
21101;SDS011;10709;49.006;12.100;2023-07-13T07:05:40;2.13;;;1.92;;
21101;SDS011;10709;49.006;12.100;2023-07-13T07:08:06;2.42;;;1.90;;
21101;SDS011;10709;49.006;12.100;2023-07-13T07:10:33;4.28;;;2.00;;
21101;SDS011;10709;49.006;12.100;2023-07-13T07:13:00;5.25;;;2.03;;
21101;SDS011;10709;49.006;12.100;2023-07-13T07:15:27;4.13;;;2.08;;
21101;SDS011;10709;49.006;12.100;2023-07-13T07:17:54;5.95;;;2.13;;
21101;SDS011;10709;49.006;12.100;2023-07-13T07:20:21;3.35;;;2.03;;
21101;SDS011;10709;49.006;12.100;2023-07-13T07:22:49;3.28;;;1.90;;
21101;SDS011;10709;49.006;12.100;2023-07-13T07:25:15;2.85;;;2.05;;
21101;SDS011;10709;49.006;12.100;2023-07-13T07:27:42;3.40;;;2.10;;
21101;SDS011;10709;49.006;12.100;2023-07-13T07:30:12;3.85;;;2.00;;
21101;SDS011;10709;49.006;12.100;2023-07-13T07:32:42;3.17;;;2.00;;
21101;SDS011;10709;49.006;12.100;2023-07-13T07:35:22;3.97;;;2.10;;
21101;SDS011;10709;49.006;12.100;2023-07-13T07:37:49;3.00;;;2.00;;
21101;SDS011;10709;49.006;12.100;2023-07-13T07:40:17;4.55;;;1.90;;
21101;SDS011;10709;49.006;12.100;2023-07-13T07:42:46;2.88;;;1.83;;
21101;SDS011;10709;49.006;12.100;2023-07-13T07:45:13;5.40;;;2.00;;
21101;SDS011;10709;49.006;12.100;2023-07-13T07:47:40;2.80;;;1.90;;
21101;SDS011;10709;49.006;12.100;2023-07-13T07:50:07;3.20;;;1.60;;
21101;SDS011;10709;49.006;12.100;2023-07-13T07:52:34;4.53;;;1.80;;
21101;SDS011;10709;49.006;12.100;2023-07-13T07:55:01;7.47;;;1.90;;
21101;SDS011;10709;49.006;12.100;2023-07-13T07:57:30;3.10;;;1.95;;
21101;SDS011;10709;49.006;12.100;2023-07-13T08:00:18;4.63;;;2.00;;
21101;SDS011;10709;49.006;12.100;2023-07-13T08:02:48;4.00;;;2.00;;
21101;SDS011;10709;49.006;12.100;2023-07-13T08:05:17;4.28;;;2.17;;
21101;SDS011;10709;49.006;12.100;2023-07-13T08:07:47;5.80;;;1.95;;
21101;SDS011;10709;49.006;12.100;2023-07-13T08:10:13;2.25;;;1.52;;
21101;SDS011;10709;49.006;12.100;2023-07-13T08:12:40;6.40;;;2.10;;
21101;SDS011;10709;49.006;12.100;2023-07-13T08:15:10;5.38;;;1.85;;
21101;SDS011;10709;49.006;12.100;2023-07-13T08:17:39;3.72;;;1.70;;
21101;SDS011;10709;49.006;12.100;2023-07-13T08:20:05;4.25;;;1.98;;
21101;SDS011;10709;49.006;12.100;2023-07-13T08:22:32;3.28;;;1.83;;
21101;SDS011;10709;49.006;12.100;2023-07-13T08:24:59;3.70;;;1.80;;
21101;SDS011;10709;49.006;12.100;2023-07-13T08:27:26;2.42;;;1.40;;
21101;SDS011;10709;49.006;12.100;2023-07-13T08:29:55;4.20;;;1.55;;
21101;SDS011;10709;49.006;12.100;2023-07-13T08:32:22;3.13;;;1.60;;
21101;SDS011;10709;49.006;12.100;2023-07-13T08:34:49;1.85;;;1.30;;
21101;SDS011;10709;49.006;12.100;2023-07-13T08:37:17;4.88;;;1.80;;
21101;SDS011;10709;49.006;12.100;2023-07-13T08:39:43;3.10;;;1.67;;
21101;SDS011;10709;49.006;12.100;2023-07-13T08:47:29;4.55;;;1.50;;
21101;SDS011;10709;49.006;12.100;2023-07-13T08:50:00;2.85;;;1.67;;
21101;SDS011;10709;49.006;12.100;2023-07-13T08:55:21;2.28;;;1.52;;
21101;SDS011;10709;49.006;12.100;2023-07-13T08:57:53;4.97;;;1.77;;
21101;SDS011;10709;49.006;12.100;2023-07-13T09:00:31;4.75;;;1.70;;
21101;SDS011;10709;49.006;12.100;2023-07-13T09:03:06;2.53;;;1.60;;
21101;SDS011;10709;49.006;12.100;2023-07-13T09:05:49;3.90;;;1.77;;
21101;SDS011;10709;49.006;12.100;2023-07-13T09:11:28;2.92;;;1.67;;
21101;SDS011;10709;49.006;12.100;2023-07-13T09:17:03;5.35;;;1.70;;
21101;SDS011;10709;49.006;12.100;2023-07-13T09:19:32;3.40;;;1.70;;
21101;SDS011;10709;49.006;12.100;2023-07-13T09:22:02;3.35;;;1.70;;
21101;SDS011;10709;49.006;12.100;2023-07-13T09:27:49;4.03;;;1.90;;
21101;SDS011;10709;49.006;12.100;2023-07-13T09:30:02;3.97;;;1.90;;
21101;SDS011;10709;49.006;12.100;2023-07-13T09:32:45;2.65;;;1.75;;
21101;SDS011;10709;49.006;12.100;2023-07-13T09:35:18;4.80;;;1.80;;
21101;SDS011;10709;49.006;12.100;2023-07-13T09:37:48;3.53;;;1.65;;
21101;SDS011;10709;49.006;12.100;2023-07-13T09:40:24;4.93;;;1.90;;
21101;SDS011;10709;49.006;12.100;2023-07-13T09:42:56;4.32;;;1.70;;
21101;SDS011;10709;49.006;12.100;2023-07-13T09:45:29;4.20;;;2.38;;
21101;SDS011;10709;49.006;12.100;2023-07-13T09:48:06;6.15;;;2.00;;
21101;SDS011;10709;49.006;12.100;2023-07-13T09:50:37;2.80;;;1.55;;
21101;SDS011;10709;49.006;12.100;2023-07-13T09:53:04;4.90;;;1.52;;
21101;SDS011;10709;49.006;12.100;2023-07-13T09:55:38;3.90;;;1.52;;
21101;SDS011;10709;49.006;12.100;2023-07-13T09:58:09;3.58;;;1.70;;
21101;SDS011;10709;49.006;12.100;2023-07-13T10:00:42;3.38;;;1.40;;
21101;SDS011;10709;49.006;12.100;2023-07-13T10:03:16;3.05;;;1.30;;
21101;SDS011;10709;49.006;12.100;2023-07-13T10:05:45;2.05;;;1.40;;
21101;SDS011;10709;49.006;12.100;2023-07-13T10:08:24;2.85;;;1.50;;
21101;SDS011;10709;49.006;12.100;2023-07-13T10:10:57;3.55;;;1.80;;
21101;SDS011;10709;49.006;12.100;2023-07-13T10:13:29;3.60;;;1.45;;
21101;SDS011;10709;49.006;12.100;2023-07-13T10:15:57;2.67;;;1.70;;
21101;SDS011;10709;49.006;12.100;2023-07-13T10:18:25;3.40;;;1.75;;
21101;SDS011;10709;49.006;12.100;2023-07-13T10:20:58;3.55;;;1.60;;
21101;SDS011;10709;49.006;12.100;2023-07-13T10:24:10;2.70;;;1.45;;
21101;SDS011;10709;49.006;12.100;2023-07-13T10:26:46;4.13;;;1.52;;
21101;SDS011;10709;49.006;12.100;2023-07-13T10:29:18;3.70;;;1.48;;
21101;SDS011;10709;49.006;12.100;2023-07-13T10:31:46;6.03;;;1.75;;
21101;SDS011;10709;49.006;12.100;2023-07-13T10:34:13;4.63;;;1.70;;
21101;SDS011;10709;49.006;12.100;2023-07-13T10:36:43;3.88;;;1.70;;
21101;SDS011;10709;49.006;12.100;2023-07-13T10:39:29;4.93;;;1.75;;
21101;SDS011;10709;49.006;12.100;2023-07-13T10:42:00;3.47;;;1.50;;
21101;SDS011;10709;49.006;12.100;2023-07-13T10:44:32;2.90;;;1.80;;
21101;SDS011;10709;49.006;12.100;2023-07-13T10:47:03;3.45;;;1.40;;
21101;SDS011;10709;49.006;12.100;2023-07-13T10:49:34;4.45;;;1.40;;
21101;SDS011;10709;49.006;12.100;2023-07-13T10:52:03;3.55;;;1.67;;
21101;SDS011;10709;49.006;12.100;2023-07-13T10:54:30;4.20;;;1.60;;
21101;SDS011;10709;49.006;12.100;2023-07-13T10:57:17;5.18;;;1.60;;
21101;SDS011;10709;49.006;12.100;2023-07-13T11:02:41;2.55;;;1.45;;
21101;SDS011;10709;49.006;12.100;2023-07-13T11:05:25;3.55;;;1.50;;
21101;SDS011;10709;49.006;12.100;2023-07-13T11:07:56;2.40;;;1.38;;
21101;SDS011;10709;49.006;12.100;2023-07-13T11:10:47;3.78;;;1.42;;
21101;SDS011;10709;49.006;12.100;2023-07-13T11:13:38;2.95;;;1.65;;
21101;SDS011;10709;49.006;12.100;2023-07-13T11:18:51;5.05;;;1.80;;
21101;SDS011;10709;49.006;12.100;2023-07-13T11:21:34;5.15;;;1.50;;
21101;SDS011;10709;49.006;12.100;2023-07-13T11:24:12;3.28;;;1.40;;
21101;SDS011;10709;49.006;12.100;2023-07-13T11:26:46;3.38;;;1.42;;
21101;SDS011;10709;49.006;12.100;2023-07-13T11:31:54;4.95;;;1.60;;
21101;SDS011;10709;49.006;12.100;2023-07-13T11:34:36;3.47;;;1.45;;
21101;SDS011;10709;49.006;12.100;2023-07-13T11:37:08;2.08;;;1.33;;
21101;SDS011;10709;49.006;12.100;2023-07-13T11:39:42;4.07;;;1.40;;
21101;SDS011;10709;49.006;12.100;2023-07-13T11:42:13;2.72;;;1.40;;
21101;SDS011;10709;49.006;12.100;2023-07-13T11:44:43;1.60;;;1.38;;
21101;SDS011;10709;49.006;12.100;2023-07-13T11:47:32;4.32;;;1.50;;
21101;SDS011;10709;49.006;12.100;2023-07-13T11:49:59;2.85;;;1.30;;
21101;SDS011;10709;49.006;12.100;2023-07-13T11:52:33;2.17;;;1.48;;
21101;SDS011;10709;49.006;12.100;2023-07-13T11:55:04;2.47;;;1.38;;
21101;SDS011;10709;49.006;12.100;2023-07-13T11:57:49;2.35;;;1.20;;
21101;SDS011;10709;49.006;12.100;2023-07-13T12:00:22;3.92;;;1.20;;
21101;SDS011;10709;49.006;12.100;2023-07-13T12:02:53;3.35;;;1.40;;
21101;SDS011;10709;49.006;12.100;2023-07-13T12:05:21;3.10;;;1.25;;
21101;SDS011;10709;49.006;12.100;2023-07-13T12:07:49;1.65;;;1.40;;
21101;SDS011;10709;49.006;12.100;2023-07-13T12:10:18;3.53;;;1.45;;
21101;SDS011;10709;49.006;12.100;2023-07-13T12:12:57;5.00;;;1.50;;
21101;SDS011;10709;49.006;12.100;2023-07-13T12:15:36;2.97;;;1.40;;
21101;SDS011;10709;49.006;12.100;2023-07-13T12:20:44;4.15;;;1.30;;
21101;SDS011;10709;49.006;12.100;2023-07-13T12:23:20;2.15;;;1.33;;
21101;SDS011;10709;49.006;12.100;2023-07-13T12:25:51;2.75;;;1.38;;
21101;SDS011;10709;49.006;12.100;2023-07-13T12:31:03;2.70;;;1.30;;
21101;SDS011;10709;49.006;12.100;2023-07-13T12:33:33;3.40;;;1.33;;
21101;SDS011;10709;49.006;12.100;2023-07-13T12:36:04;3.08;;;1.33;;
21101;SDS011;10709;49.006;12.100;2023-07-13T12:38:32;2.35;;;1.30;;
21101;SDS011;10709;49.006;12.100;2023-07-13T12:40:59;2.85;;;1.20;;
21101;SDS011;10709;49.006;12.100;2023-07-13T12:43:28;2.03;;;1.20;;
21101;SDS011;10709;49.006;12.100;2023-07-13T12:48:29;3.33;;;1.38;;
21101;SDS011;10709;49.006;12.100;2023-07-13T12:51:16;2.40;;;1.25;;
21101;SDS011;10709;49.006;12.100;2023-07-13T12:53:47;2.40;;;1.35;;
21101;SDS011;10709;49.006;12.100;2023-07-13T12:56:18;2.53;;;1.38;;
21101;SDS011;10709;49.006;12.100;2023-07-13T12:58:49;4.28;;;1.52;;
21101;SDS011;10709;49.006;12.100;2023-07-13T13:01:25;4.95;;;1.80;;
21101;SDS011;10709;49.006;12.100;2023-07-13T13:03:54;4.43;;;1.67;;
21101;SDS011;10709;49.006;12.100;2023-07-13T13:06:26;4.70;;;1.55;;
21101;SDS011;10709;49.006;12.100;2023-07-13T13:08:58;4.95;;;1.48;;
21101;SDS011;10709;49.006;12.100;2023-07-13T13:11:26;4.22;;;1.30;;
21101;SDS011;10709;49.006;12.100;2023-07-13T13:13:54;2.50;;;1.10;;
21101;SDS011;10709;49.006;12.100;2023-07-13T13:19:37;2.47;;;1.40;;
21101;SDS011;10709;49.006;12.100;2023-07-13T13:21:57;3.38;;;1.40;;
21101;SDS011;10709;49.006;12.100;2023-07-13T13:24:24;2.88;;;1.40;;
21101;SDS011;10709;49.006;12.100;2023-07-13T13:26:53;2.60;;;1.20;;
21101;SDS011;10709;49.006;12.100;2023-07-13T13:29:21;2.42;;;1.40;;
21101;SDS011;10709;49.006;12.100;2023-07-13T13:31:51;2.20;;;1.25;;
21101;SDS011;10709;49.006;12.100;2023-07-13T13:34:19;6.22;;;1.45;;
21101;SDS011;10709;49.006;12.100;2023-07-13T13:36:49;3.35;;;1.20;;
21101;SDS011;10709;49.006;12.100;2023-07-13T13:39:27;2.30;;;1.33;;
21101;SDS011;10709;49.006;12.100;2023-07-13T13:42:02;3.55;;;1.55;;
21101;SDS011;10709;49.006;12.100;2023-07-13T13:44:28;3.22;;;1.35;;
21101;SDS011;10709;49.006;12.100;2023-07-13T13:46:55;2.35;;;1.30;;
21101;SDS011;10709;49.006;12.100;2023-07-13T13:49:23;1.83;;;1.30;;
21101;SDS011;10709;49.006;12.100;2023-07-13T13:51:51;2.38;;;1.63;;
21101;SDS011;10709;49.006;12.100;2023-07-13T13:54:19;4.22;;;1.45;;
21101;SDS011;10709;49.006;12.100;2023-07-13T13:56:49;2.00;;;1.38;;
21101;SDS011;10709;49.006;12.100;2023-07-13T13:59:17;2.70;;;1.23;;
21101;SDS011;10709;49.006;12.100;2023-07-13T14:01:44;2.10;;;1.20;;
21101;SDS011;10709;49.006;12.100;2023-07-13T14:04:16;2.85;;;1.15;;
21101;SDS011;10709;49.006;12.100;2023-07-13T14:06:47;2.22;;;1.15;;
21101;SDS011;10709;49.006;12.100;2023-07-13T14:09:15;1.90;;;1.20;;
21101;SDS011;10709;49.006;12.100;2023-07-13T14:11:46;2.88;;;1.30;;
21101;SDS011;10709;49.006;12.100;2023-07-13T14:14:22;3.35;;;1.52;;
21101;SDS011;10709;49.006;12.100;2023-07-13T14:16:52;2.13;;;1.30;;
21101;SDS011;10709;49.006;12.100;2023-07-13T14:19:23;3.13;;;1.48;;
21101;SDS011;10709;49.006;12.100;2023-07-13T14:21:50;3.17;;;1.30;;
21101;SDS011;10709;49.006;12.100;2023-07-13T14:24:19;3.95;;;1.50;;
21101;SDS011;10709;49.006;12.100;2023-07-13T14:26:45;2.22;;;1.27;;
21101;SDS011;10709;49.006;12.100;2023-07-13T14:29:14;3.30;;;1.50;;
21101;SDS011;10709;49.006;12.100;2023-07-13T14:31:46;2.50;;;1.50;;
21101;SDS011;10709;49.006;12.100;2023-07-13T14:34:13;2.15;;;1.35;;
21101;SDS011;10709;49.006;12.100;2023-07-13T14:36:41;3.05;;;1.30;;
21101;SDS011;10709;49.006;12.100;2023-07-13T14:39:15;2.72;;;1.50;;
21101;SDS011;10709;49.006;12.100;2023-07-13T14:41:44;3.58;;;1.42;;
21101;SDS011;10709;49.006;12.100;2023-07-13T14:44:12;2.33;;;1.50;;
21101;SDS011;10709;49.006;12.100;2023-07-13T14:46:40;3.97;;;1.38;;
21101;SDS011;10709;49.006;12.100;2023-07-13T14:49:13;2.20;;;1.50;;
21101;SDS011;10709;49.006;12.100;2023-07-13T14:51:48;2.10;;;1.20;;
21101;SDS011;10709;49.006;12.100;2023-07-13T14:54:14;2.80;;;1.30;;
21101;SDS011;10709;49.006;12.100;2023-07-13T14:56:41;3.22;;;1.60;;
21101;SDS011;10709;49.006;12.100;2023-07-13T14:59:07;3.03;;;1.48;;
21101;SDS011;10709;49.006;12.100;2023-07-13T15:01:38;3.22;;;1.50;;
21101;SDS011;10709;49.006;12.100;2023-07-13T15:04:07;4.13;;;1.35;;
21101;SDS011;10709;49.006;12.100;2023-07-13T15:09:23;2.85;;;1.65;;
21101;SDS011;10709;49.006;12.100;2023-07-13T15:11:53;1.83;;;1.30;;
21101;SDS011;10709;49.006;12.100;2023-07-13T15:14:24;3.08;;;1.80;;
21101;SDS011;10709;49.006;12.100;2023-07-13T15:16:52;2.47;;;1.20;;
21101;SDS011;10709;49.006;12.100;2023-07-13T15:19:22;2.60;;;1.30;;
21101;SDS011;10709;49.006;12.100;2023-07-13T15:21:50;2.60;;;1.40;;
21101;SDS011;10709;49.006;12.100;2023-07-13T15:24:18;2.70;;;1.40;;
21101;SDS011;10709;49.006;12.100;2023-07-13T15:26:45;2.17;;;1.40;;